createdAt,value
2022-09-09T00:01:11.401Z,97233.75
2022-09-09T00:03:47.335Z,97245.34
2022-09-09T00:06:23.480Z,97234.16
2022-09-09T00:09:04.478Z,97233.84
2022-09-09T00:11:42.592Z,97236.94
2022-09-09T00:14:18.297Z,97235.00
2022-09-09T00:16:52.763Z,97238.53
2022-09-09T00:19:26.643Z,97240.91
2022-09-09T00:22:09.903Z,97235.94
2022-09-09T00:24:43.750Z,97239.72
2022-09-09T00:27:20.257Z,97239.66
2022-09-09T00:29:55.497Z,97233.19
2022-09-09T00:32:24.556Z,97234.78
2022-09-09T00:34:57.056Z,97233.19
2022-09-09T00:37:27.765Z,97235.44
2022-09-09T00:39:59.529Z,97234.16
2022-09-09T00:42:34.157Z,97229.97
2022-09-09T00:45:19.469Z,97235.41
2022-09-09T00:47:49.073Z,97236.25
2022-09-09T00:50:45.196Z,97235.09
2022-09-09T00:53:25.453Z,97241.03
2022-09-09T00:56:06.156Z,97236.75
2022-09-09T00:58:34.540Z,97232.91
2022-09-09T01:01:08.563Z,97234.03
2022-09-09T01:03:39.779Z,97237.72
2022-09-09T01:06:17.161Z,97240.75
2022-09-09T01:09:02.503Z,97238.19
2022-09-09T01:11:38.587Z,97236.25
2022-09-09T01:14:19.497Z,97236.38
2022-09-09T01:16:49.218Z,97231.25
2022-09-09T01:19:27.016Z,97237.50
2022-09-09T01:22:03.783Z,97230.19
2022-09-09T01:24:41.420Z,97238.53
2022-09-09T01:27:11.499Z,97233.88
2022-09-09T01:29:40.417Z,97232.13
2022-09-09T01:32:40.424Z,97228.59
2022-09-09T01:35:12.232Z,97226.81
2022-09-09T01:37:39.954Z,97232.38
2022-09-09T01:40:08.843Z,97228.19
2022-09-09T01:42:38.093Z,97222.88
2022-09-09T01:45:07.463Z,97224.81
2022-09-09T01:47:35.253Z,97230.28
2022-09-09T01:50:04.740Z,97230.59
2022-09-09T01:52:34.901Z,97230.47
2022-09-09T01:55:03.021Z,97229.69
2022-09-09T01:57:41.531Z,97226.31
2022-09-09T02:00:12.336Z,97229.53
2022-09-09T02:02:50.778Z,97226.50
2022-09-09T02:05:30.945Z,97230.00
2022-09-09T02:08:05.673Z,97225.03
2022-09-09T02:10:39.988Z,97228.72
2022-09-09T02:13:13.049Z,97225.22
2022-09-09T02:15:47.930Z,97225.66
2022-09-09T02:18:18.976Z,97217.31
2022-09-09T02:20:48.680Z,97223.56
2022-09-09T02:23:17.136Z,97217.28
2022-09-09T02:25:47.365Z,97215.50
2022-09-09T02:28:19.528Z,97218.22
2022-09-09T02:30:49.285Z,97214.34
2022-09-09T02:33:17.100Z,97213.59
2022-09-09T02:35:47.669Z,97220.75
2022-09-09T02:38:18.197Z,97209.75
2022-09-09T02:40:47.014Z,97207.84
2022-09-09T02:43:18.424Z,97212.94
2022-09-09T02:45:54.203Z,97197.06
2022-09-09T02:48:29.576Z,97196.44
2022-09-09T02:51:06.644Z,97207.44
2022-09-09T02:53:42.093Z,97201.69
2022-09-09T02:56:15.748Z,97201.06
2022-09-09T02:58:45.205Z,97207.78
2022-09-09T03:01:13.356Z,97207.53
2022-09-09T03:03:42.417Z,97213.94
2022-09-09T03:06:11.279Z,97214.56
2022-09-09T03:08:39.061Z,97211.84
2022-09-09T03:11:07.442Z,97221.78
2022-09-09T03:13:35.599Z,97221.97
2022-09-09T03:16:05.834Z,97224.97
2022-09-09T03:18:35.785Z,97219.78
2022-09-09T03:21:04.252Z,97223.72
2022-09-09T03:23:32.019Z,97214.81
2022-09-09T03:26:00.234Z,97210.28
2022-09-09T03:28:32.204Z,97213.66
2022-09-09T03:31:01.981Z,97207.78
2022-09-09T03:33:32.231Z,97204.47
2022-09-09T03:36:00.484Z,97204.41
2022-09-09T03:38:29.410Z,97208.66
2022-09-09T03:40:59.380Z,97207.72
2022-09-09T03:43:28.591Z,97201.06
2022-09-09T03:45:58.310Z,97200.72
2022-09-09T03:48:26.824Z,97201.34
2022-09-09T03:50:59.156Z,97196.19
2022-09-09T03:53:27.384Z,97194.81
2022-09-09T03:55:57.872Z,97191.31
2022-09-09T03:58:27.704Z,97184.94
2022-09-09T04:00:57.106Z,97190.47
2022-09-09T04:03:28.314Z,97183.50
2022-09-09T04:05:59.195Z,97188.38
2022-09-09T04:08:27.767Z,97181.78
2022-09-09T04:10:59.368Z,97194.75
2022-09-09T04:13:28.843Z,97187.75
2022-09-09T04:15:58.431Z,97184.31
2022-09-09T04:18:27.347Z,97183.72
2022-09-09T04:20:56.001Z,97187.47
2022-09-09T04:23:26.737Z,97186.78
2022-09-09T04:25:56.387Z,97184.44
2022-09-09T04:28:25.809Z,97190.81
2022-09-09T04:30:53.827Z,97198.81
2022-09-09T04:33:22.397Z,97188.59
2022-09-09T04:35:53.956Z,97190.81
2022-09-09T04:38:24.012Z,97204.28
2022-09-09T04:40:54.883Z,97196.94
2022-09-09T04:43:23.702Z,97206.63
2022-09-09T04:45:53.323Z,97203.91
2022-09-09T04:48:22.397Z,97205.97
2022-09-09T04:50:57.814Z,97206.56
2022-09-09T04:53:26.733Z,97202.22
2022-09-09T04:56:03.734Z,97197.31
2022-09-09T04:58:31.973Z,97206.75
2022-09-09T05:01:06.373Z,97206.31
2022-09-09T05:03:34.987Z,97215.75
2022-09-09T05:06:09.300Z,97212.34
2022-09-09T05:08:38.115Z,97204.19
2022-09-09T05:11:16.526Z,97209.97
2022-09-09T05:13:45.467Z,97207.47
2022-09-09T05:16:13.898Z,97207.97
2022-09-09T05:18:43.153Z,97210.72
2022-09-09T05:21:11.036Z,97209.13
2022-09-09T05:23:39.376Z,97206.19
2022-09-09T05:26:14.378Z,97210.00
2022-09-09T05:28:45.368Z,97211.94
2022-09-09T05:31:15.222Z,97206.47
2022-09-09T05:33:47.174Z,97212.59
2022-09-09T05:36:17.675Z,97207.47
2022-09-09T05:38:46.787Z,97211.59
2022-09-09T05:41:18.147Z,97217.97
2022-09-09T05:43:48.179Z,97219.78
2022-09-09T05:46:17.474Z,97222.06
2022-09-09T05:48:48.731Z,97221.72
2022-09-09T05:51:18.481Z,97229.13
2022-09-09T05:53:48.118Z,97224.66
2022-09-09T05:56:19.158Z,97215.56
2022-09-09T05:58:50.595Z,97234.91
2022-09-09T06:01:20.696Z,97232.16
2022-09-09T06:03:50.229Z,97238.06
2022-09-09T06:06:21.747Z,97233.84
2022-09-09T06:08:52.367Z,97232.31
2022-09-09T06:11:23.104Z,97229.78
2022-09-09T06:13:52.711Z,97229.59
2022-09-09T06:16:21.821Z,97230.53
2022-09-09T06:18:50.360Z,97224.91
2022-09-09T06:21:19.532Z,97228.69
2022-09-09T06:23:49.128Z,97226.94
2022-09-09T06:26:20.086Z,97224.84
2022-09-09T06:28:51.173Z,97221.03
2022-09-09T06:31:24.131Z,97218.78
2022-09-09T06:33:56.564Z,97220.97
2022-09-09T06:36:26.053Z,97223.94
2022-09-09T06:38:54.452Z,97230.50
2022-09-09T06:41:24.003Z,97223.44
2022-09-09T06:43:53.546Z,97221.56
2022-09-09T06:46:22.823Z,97229.41
2022-09-09T06:48:51.767Z,97228.22
2022-09-09T06:51:22.184Z,97233.63
2022-09-09T06:53:54.605Z,97239.59
2022-09-09T06:56:24.333Z,97247.00
2022-09-09T06:58:55.937Z,97244.63
2022-09-09T07:01:25.445Z,97248.38
2022-09-09T07:03:55.901Z,97254.25
2022-09-09T07:06:25.728Z,97254.09
2022-09-09T07:08:56.744Z,97245.59
2022-09-09T07:11:27.917Z,97248.91
2022-09-09T07:13:59.435Z,97241.69
2022-09-09T07:16:28.772Z,97241.91
2022-09-09T07:18:59.078Z,97244.44
2022-09-09T07:21:28.414Z,97252.63
2022-09-09T07:23:57.269Z,97252.00
2022-09-09T07:26:27.845Z,97255.44
2022-09-09T07:28:58.528Z,97253.69
2022-09-09T07:31:28.840Z,97254.47
2022-09-09T07:33:57.092Z,97253.56
2022-09-09T07:36:32.501Z,97254.53
2022-09-09T07:39:03.189Z,97263.25
2022-09-09T07:41:35.758Z,97272.69
2022-09-09T07:44:08.765Z,97276.34
2022-09-09T07:46:38.338Z,97275.19
2022-09-09T07:49:06.527Z,97279.03
2022-09-09T07:51:36.808Z,97282.19
2022-09-09T07:54:07.580Z,97275.72
2022-09-09T07:56:36.843Z,97278.31
2022-09-09T07:59:07.199Z,97279.19
2022-09-09T08:01:40.629Z,97271.69
2022-09-09T08:04:10.418Z,97273.69
2022-09-09T08:06:43.682Z,97261.97
2022-09-09T08:09:12.066Z,97268.81
2022-09-09T08:11:41.511Z,97261.72
2022-09-09T08:14:10.334Z,97258.59
2022-09-09T08:16:42.695Z,97273.97
2022-09-09T08:19:10.914Z,97276.78
2022-09-09T08:21:41.288Z,97266.53
2022-09-09T08:24:11.493Z,97268.66
2022-09-09T08:26:40.702Z,97261.66
2022-09-09T08:29:11.171Z,97258.34
2022-09-09T08:31:41.895Z,97260.22
2022-09-09T08:34:12.032Z,97265.00
2022-09-09T08:36:43.355Z,97262.09
2022-09-09T08:39:12.782Z,97258.44
2022-09-09T08:42:19.440Z,97270.00
2022-09-09T08:45:17.056Z,97276.94
2022-09-09T08:47:58.458Z,97274.53
2022-09-09T08:50:29.099Z,97276.06
2022-09-09T08:53:03.811Z,97281.28
2022-09-09T08:55:40.960Z,97271.19
2022-09-09T08:58:14.528Z,97275.44
2022-09-09T09:00:54.248Z,97268.69
2022-09-09T09:03:36.554Z,97274.56
2022-09-09T09:06:11.579Z,97270.97
2022-09-09T09:08:46.689Z,97274.16
2022-09-09T09:11:14.576Z,97277.50
2022-09-09T09:13:48.047Z,97277.72
2022-09-09T09:16:24.405Z,97269.13
2022-09-09T09:18:54.098Z,97269.69
2022-09-09T09:21:31.039Z,97266.63
2022-09-09T09:24:00.943Z,97270.09
2022-09-09T09:26:33.689Z,97262.06
2022-09-09T09:29:10.951Z,97266.53
2022-09-09T09:31:38.798Z,97270.09
2022-09-09T09:34:11.625Z,97259.53
2022-09-09T09:36:43.795Z,97260.66
2022-09-09T09:42:06.423Z,97259.53
2022-09-09T09:44:38.524Z,97259.28
2022-09-09T09:47:11.833Z,97265.16
2022-09-09T09:49:41.963Z,97262.63
2022-09-09T09:52:19.159Z,97255.38
2022-09-09T09:54:47.596Z,97254.34
2022-09-09T09:57:18.482Z,97254.03
2022-09-09T09:59:48.251Z,97254.38
2022-09-09T10:02:19.399Z,97245.31
2022-09-09T10:04:49.546Z,97248.00
2022-09-09T10:07:22.755Z,97241.06
2022-09-09T10:09:58.096Z,97242.72
2022-09-09T10:12:39.699Z,97248.19
2022-09-09T10:15:23.075Z,97236.50
2022-09-09T10:17:59.588Z,97233.78
2022-09-09T10:20:45.926Z,97236.50
2022-09-09T10:23:31.015Z,97244.78
2022-09-09T10:26:10.717Z,97237.84
2022-09-09T10:29:03.311Z,97225.75
2022-09-09T10:31:40.035Z,97225.19
2022-09-09T10:34:18.233Z,97227.56
2022-09-09T10:36:52.376Z,97218.97
2022-09-09T10:39:43.373Z,97217.72
2022-09-09T10:42:17.135Z,97212.22
2022-09-09T10:45:01.832Z,97220.72
2022-09-09T10:48:02.811Z,97218.28
2022-09-09T10:51:05.370Z,97211.50
2022-09-09T10:53:54.397Z,97207.25
2022-09-09T10:56:26.451Z,97201.00
2022-09-09T10:59:01.028Z,97197.56
2022-09-09T11:01:33.635Z,97196.09
2022-09-09T11:04:07.986Z,97195.94
2022-09-09T11:06:42.219Z,97197.22
2022-09-09T11:09:18.764Z,97203.53
2022-09-09T11:11:54.918Z,97206.47
2022-09-09T11:14:35.321Z,97209.97
2022-09-09T11:17:11.227Z,97208.34
2022-09-09T11:19:43.570Z,97220.47
2022-09-09T11:22:26.830Z,97222.53
2022-09-09T11:25:02.829Z,97230.13
2022-09-09T11:27:39.019Z,97219.50
2022-09-09T11:30:51.650Z,97221.59
2022-09-09T11:33:53.991Z,97213.63
2022-09-09T11:36:45.909Z,97203.84
2022-09-09T11:39:38.546Z,97199.63
2022-09-09T11:42:25.849Z,97197.78
2022-09-09T11:44:56.290Z,97192.09
2022-09-09T11:47:30.359Z,97195.16
2022-09-09T11:50:28.998Z,97191.34
2022-09-09T11:53:08.487Z,97190.41
2022-09-09T11:55:38.392Z,97184.63
2022-09-09T11:58:17.557Z,97184.31
2022-09-09T12:00:47.215Z,97178.47
2022-09-09T12:03:39.167Z,97183.72
2022-09-09T12:06:19.492Z,97188.13
2022-09-09T12:08:52.694Z,97185.59
2022-09-09T12:11:27.967Z,97193.72
2022-09-09T12:14:02.298Z,97213.81
2022-09-09T12:16:34.208Z,97215.41
2022-09-09T12:19:17.308Z,97204.03
2022-09-09T12:21:53.798Z,97195.72
2022-09-09T12:24:30.163Z,97186.44
2022-09-09T12:27:07.160Z,97175.88
2022-09-09T12:29:45.315Z,97176.34
2022-09-09T12:32:15.237Z,97157.22
2022-09-09T12:34:50.034Z,97163.97
2022-09-09T12:37:29.976Z,97152.97
2022-09-09T12:40:00.414Z,97159.28
2022-09-09T12:42:29.654Z,97162.63
2022-09-09T12:45:00.603Z,97157.81
2022-09-09T12:47:41.586Z,97156.16
2022-09-09T12:50:19.144Z,97149.66
2022-09-09T12:52:48.680Z,97147.91
2022-09-09T12:55:22.599Z,97153.88
2022-09-09T12:57:53.200Z,97135.84
2022-09-09T13:00:25.555Z,97133.63
2022-09-09T13:02:55.564Z,97121.72
2022-09-09T13:05:25.710Z,97123.59
2022-09-09T13:07:54.009Z,97131.66
2022-09-09T13:10:36.611Z,97127.88
2022-09-09T13:13:19.057Z,97124.34
2022-09-09T13:15:54.973Z,97122.03
2022-09-09T13:18:25.919Z,97124.00
2022-09-09T13:20:54.065Z,97129.13
2022-09-09T13:23:24.320Z,97114.06
2022-09-09T13:25:56.919Z,97122.97
2022-09-09T13:28:27.116Z,97126.91
2022-09-09T13:31:04.177Z,97121.53
2022-09-09T13:33:35.193Z,97132.63
2022-09-09T13:36:06.291Z,97140.53
2022-09-09T13:38:38.920Z,97132.56
2022-09-09T13:41:08.848Z,97127.06
2022-09-09T13:43:40.735Z,97130.22
2022-09-09T13:46:29.064Z,97137.19
2022-09-09T13:48:58.759Z,97136.22
2022-09-09T13:51:35.255Z,97137.03
2022-09-09T13:54:03.711Z,97130.38
2022-09-09T13:56:31.564Z,97131.06
2022-09-09T13:58:59.884Z,97137.47
2022-09-09T14:01:29.987Z,97139.91
2022-09-09T14:03:58.309Z,97152.56
2022-09-09T14:06:26.245Z,97158.47
2022-09-09T14:08:56.151Z,97165.22
2022-09-09T14:11:24.224Z,97165.25
2022-09-09T14:13:52.517Z,97165.63
2022-09-09T14:16:21.431Z,97172.63
2022-09-09T14:18:51.527Z,97168.34
2022-09-09T14:21:19.858Z,97169.53
2022-09-09T14:23:50.570Z,97157.63
2022-09-09T14:26:20.317Z,97157.69
2022-09-09T14:28:56.154Z,97156.09
2022-09-09T14:31:25.105Z,97166.41
2022-09-09T14:33:54.902Z,97153.66
2022-09-09T14:36:22.773Z,97154.47
2022-09-09T14:38:51.197Z,97160.84
2022-09-09T14:41:21.105Z,97165.22
2022-09-09T14:43:49.073Z,97159.13
2022-09-09T14:46:18.803Z,97163.09
2022-09-09T14:48:49.590Z,97158.47
2022-09-09T14:51:23.600Z,97175.84
2022-09-09T14:53:55.481Z,97173.88
2022-09-09T14:56:25.557Z,97165.22
2022-09-09T14:58:56.696Z,97160.84
2022-09-09T15:01:28.326Z,97169.56
2022-09-09T15:03:58.849Z,97160.88
2022-09-09T15:06:30.630Z,97164.03
2022-09-09T15:08:59.880Z,97156.91
2022-09-09T15:11:31.843Z,97156.91
2022-09-09T15:14:00.193Z,97154.50
2022-09-09T15:16:29.882Z,97160.03
2022-09-09T15:19:00.892Z,97158.06
2022-09-09T15:21:32.733Z,97161.63
2022-09-09T15:24:01.506Z,97158.06
2022-09-09T15:26:30.181Z,97156.91
2022-09-09T15:29:00.423Z,97150.22
2022-09-09T15:31:31.690Z,97147.00
2022-09-09T15:34:02.519Z,97137.50
2022-09-09T15:36:34.527Z,97137.06
2022-09-09T15:39:03.147Z,97140.31
2022-09-09T15:41:32.466Z,97139.13
2022-09-09T15:44:01.821Z,97133.97
2022-09-09T15:46:37.050Z,97134.78
2022-09-09T15:49:12.026Z,97132.41
2022-09-09T15:51:44.556Z,97136.38
2022-09-09T15:54:14.752Z,97138.72
2022-09-09T15:56:43.869Z,97137.53
2022-09-09T15:59:12.362Z,97139.13
2022-09-09T16:01:42.090Z,97141.41
2022-09-09T16:04:10.160Z,97148.47
2022-09-09T16:06:38.422Z,97147.63
2022-09-09T16:09:09.226Z,97151.00
2022-09-09T16:11:39.466Z,97152.09
2022-09-09T16:14:08.424Z,97149.34
2022-09-09T16:16:37.123Z,97159.78
2022-09-09T16:19:08.483Z,97165.78
2022-09-09T16:21:38.622Z,97163.75
2022-09-09T16:24:10.308Z,97159.25
2022-09-09T16:26:39.600Z,97159.13
2022-09-09T16:29:08.143Z,97160.00
2022-09-09T16:31:36.037Z,97147.75
2022-09-09T16:34:05.287Z,97148.53
2022-09-09T16:36:36.523Z,97155.50
2022-09-09T16:39:08.007Z,97159.09
2022-09-09T16:41:35.907Z,97160.91
2022-09-09T16:44:06.109Z,97165.09
2022-09-09T16:46:36.494Z,97159.00
2022-09-09T16:49:06.666Z,97163.03
2022-09-09T16:51:36.722Z,97179.28
2022-09-09T16:54:09.107Z,97182.22
2022-09-09T16:56:39.103Z,97189.41
2022-09-09T16:59:09.872Z,97182.44
2022-09-09T17:01:41.836Z,97186.19
2022-09-09T17:04:12.402Z,97185.09
2022-09-09T17:06:40.369Z,97188.28
2022-09-09T17:09:11.315Z,97182.88
2022-09-09T17:11:40.832Z,97186.78
2022-09-09T17:14:10.740Z,97195.28
2022-09-09T17:16:40.576Z,97201.69
2022-09-09T17:19:09.687Z,97202.69
2022-09-09T17:21:54.611Z,97194.91
2022-09-09T17:24:29.986Z,97196.78
2022-09-09T17:26:58.836Z,97204.56
2022-09-09T17:29:26.781Z,97209.91
2022-09-09T17:31:54.765Z,97217.34
2022-09-09T17:34:24.231Z,97217.53
2022-09-09T17:36:52.678Z,97226.03
2022-09-09T17:39:20.925Z,97219.88
2022-09-09T17:41:50.640Z,97219.25
2022-09-09T17:44:20.837Z,97221.41
2022-09-09T17:46:49.308Z,97225.66
2022-09-09T17:49:19.373Z,97231.75
2022-09-09T17:51:48.435Z,97236.19
2022-09-09T17:54:19.735Z,97246.16
2022-09-09T17:56:48.951Z,97244.84
2022-09-09T17:59:19.724Z,97248.91
2022-09-09T18:01:50.876Z,97249.13
2022-09-09T18:04:20.422Z,97247.91
2022-09-09T18:06:50.823Z,97256.47
2022-09-09T18:09:20.566Z,97261.94
2022-09-09T18:11:51.350Z,97268.69
2022-09-09T18:14:23.079Z,97270.63
2022-09-09T18:16:51.979Z,97275.63
2022-09-09T18:19:22.909Z,97278.63
2022-09-09T18:21:51.137Z,97277.47
2022-09-09T18:24:22.178Z,97276.38
2022-09-09T18:26:51.342Z,97281.06
2022-09-09T18:29:25.650Z,97270.22
2022-09-09T18:31:54.947Z,97277.44
2022-09-09T18:34:26.064Z,97280.81
2022-09-09T18:36:55.957Z,97293.34
2022-09-09T18:39:27.137Z,97289.97
2022-09-09T18:41:57.935Z,97299.78
2022-09-09T18:44:30.652Z,97299.78
2022-09-09T18:46:59.435Z,97306.84
2022-09-09T18:49:27.916Z,97311.81
2022-09-09T18:51:56.531Z,97308.09
2022-09-09T18:54:26.505Z,97304.06
2022-09-09T18:56:55.303Z,97305.66
2022-09-09T18:59:24.605Z,97299.94
2022-09-09T19:01:55.553Z,97295.16
2022-09-09T19:04:25.353Z,97295.16
2022-09-09T19:06:58.498Z,97304.66
2022-09-09T19:09:29.468Z,97305.28
2022-09-09T19:11:57.657Z,97310.19
2022-09-09T19:14:26.867Z,97316.09
2022-09-09T19:16:56.908Z,97317.34
2022-09-09T19:19:27.040Z,97312.31
2022-09-09T19:21:57.759Z,97320.41
2022-09-09T19:24:28.436Z,97328.28
2022-09-09T19:26:59.276Z,97327.25
2022-09-09T19:29:28.677Z,97324.88
2022-09-09T19:34:48.418Z,97326.13
2022-09-09T19:37:18.601Z,97325.97
2022-09-09T19:39:47.107Z,97330.19
2022-09-09T19:42:16.068Z,97336.47
2022-09-09T19:44:44.070Z,97336.31
2022-09-09T19:47:15.346Z,97345.16
2022-09-09T19:49:46.909Z,97342.00
2022-09-09T19:52:16.443Z,97350.13
2022-09-09T19:54:44.452Z,97347.06
2022-09-09T19:57:18.120Z,97341.84
2022-09-09T19:59:46.005Z,97350.38
2022-09-09T20:02:17.317Z,97345.94
2022-09-09T20:04:45.553Z,97347.06
2022-09-09T20:07:17.800Z,97338.19
2022-09-09T20:09:46.283Z,97344.22
2022-09-09T20:12:14.135Z,97349.59
2022-09-09T20:14:42.523Z,97356.66
2022-09-09T20:17:11.578Z,97348.22
2022-09-09T20:19:40.802Z,97344.13
2022-09-09T20:22:09.109Z,97344.69
2022-09-09T20:24:38.219Z,97348.56
2022-09-09T20:27:08.546Z,97343.09
2022-09-09T20:29:37.533Z,97349.44
2022-09-09T20:32:06.322Z,97340.59
2022-09-09T20:34:34.571Z,97337.19
2022-09-09T20:37:05.088Z,97334.56
2022-09-09T20:39:33.155Z,97332.63
2022-09-09T20:42:01.306Z,97335.09
2022-09-09T20:44:30.075Z,97335.22
2022-09-09T20:47:02.792Z,97331.00
2022-09-09T20:49:30.969Z,97327.72
2022-09-09T20:51:59.009Z,97330.34
2022-09-09T20:54:30.661Z,97329.06
2022-09-09T20:56:59.823Z,97315.84
2022-09-09T20:59:30.072Z,97326.78
2022-09-09T21:01:58.481Z,97320.75
2022-09-09T21:04:26.875Z,97320.31
2022-09-09T21:06:54.928Z,97316.09
2022-09-09T21:09:24.922Z,97315.28
2022-09-09T21:11:54.528Z,97311.31
2022-09-09T21:14:22.994Z,97315.28
2022-09-09T21:16:50.893Z,97328.13
2022-09-09T21:19:18.827Z,97310.72
2022-09-09T21:21:47.912Z,97312.88
2022-09-09T21:24:15.979Z,97314.59
2022-09-09T21:26:43.781Z,97312.88
2022-09-09T21:29:13.985Z,97320.59
2022-09-09T21:31:43.496Z,97315.47
2022-09-09T21:34:13.739Z,97317.72
2022-09-09T21:36:42.053Z,97316.69
2022-09-09T21:39:10.355Z,97322.25
2022-09-09T21:41:38.391Z,97317.59
2022-09-09T21:44:06.387Z,97333.94
2022-09-09T21:46:39.996Z,97337.50
2022-09-09T21:49:07.978Z,97325.59
2022-09-09T21:51:36.008Z,97339.66
2022-09-09T21:54:04.940Z,97338.00
2022-09-09T21:56:33.199Z,97342.94
2022-09-09T21:59:05.323Z,97350.84
2022-09-09T22:01:34.332Z,97354.06
2022-09-09T22:04:05.212Z,97355.59
2022-09-09T22:06:33.282Z,97346.38
2022-09-09T22:09:03.894Z,97348.66
2022-09-09T22:11:32.096Z,97349.00
2022-09-09T22:14:02.211Z,97342.28
2022-09-09T22:16:33.178Z,97348.06
2022-09-09T22:19:02.854Z,97344.69
2022-09-09T22:21:34.203Z,97351.00
2022-09-09T22:24:04.925Z,97351.00
2022-09-09T22:26:34.707Z,97348.47
2022-09-09T22:29:05.351Z,97355.53
2022-09-09T22:31:34.269Z,97358.25
2022-09-09T22:34:02.238Z,97361.25
2022-09-09T22:36:32.142Z,97366.69
2022-09-09T22:39:01.995Z,97367.81
2022-09-09T22:41:32.409Z,97372.41
2022-09-09T22:44:00.225Z,97373.69
2022-09-09T22:46:28.675Z,97372.59
2022-09-09T22:48:56.842Z,97380.78
2022-09-09T22:51:25.045Z,97375.47
2022-09-09T22:53:52.856Z,97378.81
2022-09-09T22:56:22.439Z,97375.88
2022-09-09T22:58:55.653Z,97372.41
2022-09-09T23:01:25.808Z,97372.28
2022-09-09T23:03:55.673Z,97367.22
2022-09-09T23:06:27.307Z,97362.19
2022-09-09T23:08:57.128Z,97363.81
2022-09-09T23:11:30.750Z,97372.91
2022-09-09T23:14:00.732Z,97364.78
2022-09-09T23:16:31.570Z,97368.97
2022-09-09T23:19:00.912Z,97373.09
2022-09-09T23:21:30.941Z,97373.25
2022-09-09T23:24:00.401Z,97373.94
2022-09-09T23:26:30.214Z,97380.97
2022-09-09T23:28:59.683Z,97372.84
2022-09-09T23:31:30.143Z,97387.09
2022-09-09T23:33:59.127Z,97375.97
2022-09-09T23:36:29.908Z,97379.31
2022-09-09T23:38:58.696Z,97365.16
2022-09-09T23:41:28.522Z,97368.81
2022-09-09T23:43:58.469Z,97362.91
2022-09-09T23:46:29.172Z,97363.53
2022-09-09T23:48:57.924Z,97362.19
2022-09-09T23:51:28.516Z,97362.25
2022-09-09T23:53:57.855Z,97360.97
2022-09-09T23:56:28.588Z,97364.03
2022-09-09T23:59:01.210Z,97364.97
